createdAt,value
2018-05-02T00:02:26.374Z,2.03
2018-05-02T00:04:53.938Z,2.62
2018-05-02T00:07:21.480Z,2.47
2018-05-02T00:09:49.778Z,2.00
2018-05-02T00:12:17.325Z,2.45
2018-05-02T00:14:45.646Z,2.22
2018-05-02T00:17:13.196Z,2.35
2018-05-02T00:19:40.753Z,2.35
2018-05-02T00:22:08.306Z,2.20
2018-05-02T00:24:36.622Z,2.10
2018-05-02T00:27:04.159Z,2.05
2018-05-02T00:29:31.714Z,2.60
2018-05-02T00:31:59.262Z,2.60
2018-05-02T00:34:27.584Z,2.85
2018-05-02T00:36:55.139Z,2.60
2018-05-02T00:39:22.742Z,2.80
2018-05-02T00:41:50.289Z,2.65
2018-05-02T00:44:17.823Z,1.90
2018-05-02T00:46:45.374Z,2.67
2018-05-02T00:49:18.388Z,2.58
2018-05-02T00:51:45.924Z,2.70
2018-05-02T00:54:14.237Z,2.75
2018-05-02T00:56:41.784Z,2.65
2018-05-02T00:59:09.317Z,2.30
2018-05-02T01:01:36.832Z,2.35
2018-05-02T01:04:04.368Z,2.12
2018-05-02T01:06:32.689Z,2.17
2018-05-02T01:09:00.222Z,2.22
2018-05-02T01:11:27.801Z,2.10
2018-05-02T01:13:55.353Z,2.45
2018-05-02T01:16:22.882Z,2.00
2018-05-02T01:18:50.417Z,2.00
2018-05-02T01:21:17.974Z,2.50
2018-05-02T01:23:45.514Z,2.30
2018-05-02T01:26:13.047Z,2.40
2018-05-02T01:28:41.348Z,2.37
2018-05-02T01:31:08.884Z,2.30
2018-05-02T01:33:36.405Z,1.73
2018-05-02T01:36:03.966Z,2.05
2018-05-02T01:38:31.498Z,2.00
2018-05-02T01:40:59.790Z,2.10
2018-05-02T01:43:27.346Z,1.80
2018-05-02T01:45:54.904Z,2.08
2018-05-02T01:48:22.463Z,2.35
2018-05-02T01:50:50.763Z,2.50
2018-05-02T01:53:18.318Z,1.85
2018-05-02T01:55:45.940Z,2.00
2018-05-02T01:58:13.457Z,2.65
2018-05-02T02:00:40.991Z,2.37
2018-05-02T02:03:09.287Z,2.30
2018-05-02T02:05:37.592Z,2.25
2018-05-02T02:08:05.126Z,2.22
2018-05-02T02:10:33.462Z,2.78
2018-05-02T02:13:01.013Z,2.67
2018-05-02T02:15:28.566Z,3.05
2018-05-02T02:17:56.117Z,2.92
2018-05-02T02:20:23.705Z,2.60
2018-05-02T02:22:51.258Z,3.40
2018-05-02T02:25:18.806Z,3.05
2018-05-02T02:27:46.344Z,3.47
2018-05-02T02:30:14.663Z,3.20
2018-05-02T02:32:42.214Z,2.80
2018-05-02T02:35:09.745Z,2.87
2018-05-02T02:37:37.278Z,3.12
2018-05-02T02:40:04.796Z,3.12
2018-05-02T02:42:33.111Z,2.65
2018-05-02T02:45:00.650Z,3.20
2018-05-02T02:47:28.184Z,3.20
2018-05-02T02:49:55.730Z,2.87
2018-05-02T02:52:23.282Z,3.20
2018-05-02T02:54:51.595Z,2.78
2018-05-02T02:57:19.113Z,3.42
2018-05-02T02:59:46.715Z,3.20
2018-05-02T03:02:14.254Z,3.08
2018-05-02T03:04:41.807Z,3.28
2018-05-02T03:07:09.363Z,2.83
2018-05-02T03:09:36.924Z,3.00
2018-05-02T03:12:04.474Z,2.92
2018-05-02T03:14:32.015Z,2.30
2018-05-02T03:17:00.326Z,3.25
2018-05-02T03:19:27.873Z,2.25
2018-05-02T03:21:55.430Z,3.40
2018-05-02T03:24:23.730Z,3.55
2018-05-02T03:26:51.299Z,2.67
2018-05-02T03:29:18.841Z,3.00
2018-05-02T03:31:47.164Z,3.12
2018-05-02T03:34:14.689Z,3.90
2018-05-02T03:36:42.986Z,4.28
2018-05-02T03:39:10.509Z,3.97
2018-05-02T03:41:38.035Z,3.90
2018-05-02T03:44:05.634Z,4.50
2018-05-02T03:46:33.157Z,3.60
2018-05-02T03:49:00.710Z,4.30
2018-05-02T03:51:28.263Z,3.62
2018-05-02T03:53:55.822Z,4.10
2018-05-02T03:56:23.353Z,3.80
2018-05-02T03:58:50.873Z,3.80
2018-05-02T04:01:30.339Z,3.30
2018-05-02T04:04:09.927Z,3.40
2018-05-02T04:06:49.459Z,3.35
2018-05-02T04:09:17.010Z,3.72
2018-05-02T04:11:45.341Z,3.37
2018-05-02T04:14:12.882Z,3.35
2018-05-02T04:16:40.434Z,6.85
2018-05-02T04:19:07.968Z,8.93
2018-05-02T04:21:35.506Z,4.70
2018-05-02T04:24:03.058Z,4.32
2018-05-02T04:26:30.614Z,5.12
2018-05-02T04:28:58.151Z,4.70
2018-05-02T04:31:25.696Z,4.78
2018-05-02T04:33:54.009Z,4.80
2018-05-02T04:36:21.565Z,5.30
2018-05-02T04:38:49.112Z,7.60
2018-05-02T04:41:17.434Z,6.78
2018-05-02T04:43:44.999Z,6.87
2018-05-02T04:46:12.550Z,10.35
2018-05-02T04:48:40.112Z,11.90
2018-05-02T04:51:07.641Z,8.30
2018-05-02T04:53:35.943Z,7.12
2018-05-02T04:56:03.474Z,6.90
2018-05-02T04:58:31.007Z,5.80
2018-05-02T05:00:58.563Z,5.90
2018-05-02T05:03:26.094Z,4.60
2018-05-02T05:05:53.622Z,4.30
2018-05-02T05:08:21.168Z,4.87
2018-05-02T05:10:48.724Z,3.72
2018-05-02T05:13:16.298Z,4.32
2018-05-02T05:15:44.715Z,3.92
2018-05-02T05:18:13.036Z,3.85
2018-05-02T05:20:40.591Z,3.97
2018-05-02T05:23:08.109Z,3.70
2018-05-02T05:25:35.652Z,3.30
2018-05-02T05:28:03.214Z,3.47
2018-05-02T05:30:30.771Z,3.35
2018-05-02T05:32:58.311Z,3.90
2018-05-02T05:35:25.842Z,3.85
2018-05-02T05:37:54.158Z,3.70
2018-05-02T05:40:21.715Z,3.10
2018-05-02T05:42:49.259Z,3.50
2018-05-02T05:45:17.553Z,3.10
2018-05-02T05:47:45.081Z,2.90
2018-05-02T05:50:12.610Z,2.55
2018-05-02T05:52:40.214Z,2.30
2018-05-02T05:55:07.747Z,2.60
2018-05-02T05:57:35.349Z,3.15
2018-05-02T06:00:03.703Z,3.20
2018-05-02T06:02:31.235Z,2.53
2018-05-02T06:04:58.762Z,2.60
2018-05-02T06:07:27.082Z,2.70
2018-05-02T06:09:54.642Z,2.75
2018-05-02T06:12:22.241Z,2.70
2018-05-02T06:14:50.703Z,2.55
2018-05-02T06:17:18.248Z,2.85
2018-05-02T06:19:45.779Z,2.50
2018-05-02T06:22:13.342Z,2.15
2018-05-02T06:24:40.874Z,2.40
2018-05-02T06:27:08.461Z,3.10
2018-05-02T06:29:36.019Z,3.53
2018-05-02T06:32:03.573Z,2.40
2018-05-02T06:34:31.125Z,2.72
2018-05-02T06:36:58.673Z,3.65
2018-05-02T06:39:26.239Z,2.78
2018-05-02T06:41:53.773Z,2.47
2018-05-02T06:44:22.090Z,2.75
2018-05-02T06:46:49.654Z,2.80
2018-05-02T06:49:17.273Z,2.67
2018-05-02T06:51:44.798Z,2.35
2018-05-02T06:54:12.399Z,2.65
2018-05-02T06:56:40.696Z,2.60
2018-05-02T06:59:09.013Z,2.35
2018-05-02T07:01:36.571Z,2.80
2018-05-02T07:04:04.149Z,2.65
2018-05-02T07:06:31.680Z,2.28
2018-05-02T07:08:59.226Z,2.80
2018-05-02T07:11:27.553Z,2.78
2018-05-02T07:13:55.101Z,3.00
2018-05-02T07:16:22.634Z,2.42
2018-05-02T07:18:50.925Z,2.58
2018-05-02T07:21:18.493Z,3.20
2018-05-02T07:23:46.096Z,3.05
2018-05-02T07:26:13.659Z,2.60
2018-05-02T07:28:41.972Z,2.70
2018-05-02T07:31:09.521Z,2.67
2018-05-02T07:33:37.054Z,2.20
2018-05-02T07:36:04.612Z,2.83
2018-05-02T07:38:32.148Z,2.70
2018-05-02T07:41:00.437Z,2.60
2018-05-02T07:43:28.787Z,2.28
2018-05-02T07:45:56.331Z,2.47
2018-05-02T07:48:23.865Z,2.08
2018-05-02T07:50:51.399Z,2.53
2018-05-02T07:53:19.716Z,2.00
2018-05-02T07:55:47.279Z,2.70
2018-05-02T07:58:14.833Z,2.40
2018-05-02T08:00:42.398Z,2.30
2018-05-02T08:03:09.958Z,2.80
2018-05-02T08:05:37.519Z,2.40
2018-05-02T08:08:05.051Z,2.85
2018-05-02T08:10:32.610Z,2.37
2018-05-02T08:13:00.154Z,2.83
2018-05-02T08:15:27.687Z,2.60
2018-05-02T08:17:55.237Z,2.10
2018-05-02T08:20:23.551Z,2.28
2018-05-02T08:22:51.151Z,2.10
2018-05-02T08:25:18.677Z,2.08
2018-05-02T08:27:46.234Z,2.08
2018-05-02T08:30:13.833Z,2.00
2018-05-02T08:32:41.356Z,1.98
2018-05-02T08:35:08.945Z,2.45
2018-05-02T08:37:36.468Z,2.30
2018-05-02T08:40:04.029Z,2.80
2018-05-02T08:42:31.586Z,2.05
2018-05-02T08:44:59.113Z,2.60
2018-05-02T08:47:26.683Z,3.10
2018-05-02T08:49:54.252Z,3.45
2018-05-02T08:52:21.823Z,2.90
2018-05-02T08:54:50.123Z,2.30
2018-05-02T08:57:18.504Z,2.53
2018-05-02T08:59:45.978Z,3.40
2018-05-02T09:02:13.535Z,2.67
2018-05-02T09:04:41.069Z,2.30
2018-05-02T09:07:08.593Z,2.30
2018-05-02T09:09:36.126Z,1.90
2018-05-02T09:12:04.458Z,3.20
2018-05-02T09:14:31.995Z,2.35
2018-05-02T09:16:59.525Z,2.15
2018-05-02T09:19:27.846Z,2.10
2018-05-02T09:21:55.376Z,1.70
2018-05-02T09:24:23.698Z,2.10
2018-05-02T09:26:51.245Z,1.80
2018-05-02T09:29:18.823Z,1.85
2018-05-02T09:31:46.378Z,1.80
2018-05-02T09:34:13.931Z,1.95
2018-05-02T09:36:41.497Z,1.70
2018-05-02T09:39:09.053Z,1.80
2018-05-02T09:41:36.604Z,2.12
2018-05-02T09:44:04.970Z,1.60
2018-05-02T09:46:32.455Z,1.95
2018-05-02T09:49:00.936Z,1.70
2018-05-02T09:51:29.237Z,2.10
2018-05-02T09:53:56.768Z,1.70
2018-05-02T09:56:25.074Z,1.75
2018-05-02T09:58:52.607Z,2.03
2018-05-02T10:01:20.182Z,1.40
2018-05-02T10:03:48.514Z,1.87
2018-05-02T10:06:16.051Z,1.55
2018-05-02T10:08:43.608Z,1.60
2018-05-02T10:11:11.187Z,2.12
2018-05-02T10:13:38.724Z,1.60
2018-05-02T10:18:34.167Z,1.90
2018-05-02T10:21:01.684Z,1.70
2018-05-02T10:23:29.316Z,1.85
2018-05-02T10:25:56.887Z,2.05
2018-05-02T10:28:24.445Z,2.50
2018-05-02T10:30:51.978Z,1.90
2018-05-02T10:33:20.286Z,1.87
2018-05-02T10:38:14.994Z,2.20
2018-05-02T11:12:51.069Z,2.60
2018-05-02T11:15:18.618Z,2.50
2018-05-02T11:17:46.230Z,2.05
2018-05-02T11:20:15.105Z,2.30
2018-05-02T11:22:44.006Z,2.67
2018-05-02T11:27:41.354Z,2.42
2018-05-02T11:40:04.875Z,3.05
2018-05-02T11:45:02.214Z,3.53
2018-05-02T11:47:31.126Z,3.00
2018-05-02T11:50:00.001Z,2.85
2018-05-02T11:52:28.877Z,3.12
2018-05-02T11:54:57.753Z,4.28
2018-05-02T11:57:26.662Z,3.10
2018-05-02T11:59:55.585Z,3.50
2018-05-02T12:02:24.456Z,4.00
2018-05-02T12:04:53.338Z,3.62
2018-05-02T12:07:22.236Z,3.25
2018-05-02T12:09:51.105Z,3.10
2018-05-02T12:12:20.046Z,3.53
2018-05-02T12:14:48.953Z,2.60
2018-05-02T12:17:17.824Z,2.70
2018-05-02T12:19:46.791Z,2.30
2018-05-02T12:22:16.472Z,2.90
2018-05-02T12:24:45.397Z,2.92
2018-05-02T12:27:14.302Z,3.45
2018-05-02T12:29:42.590Z,3.28
2018-05-02T12:32:10.222Z,3.30
2018-05-02T12:34:37.768Z,2.55
2018-05-02T12:37:06.089Z,2.80
2018-05-02T12:39:33.640Z,2.80
2018-05-02T12:42:01.225Z,3.10
2018-05-02T12:44:28.800Z,3.17
2018-05-02T12:46:57.121Z,3.10
2018-05-02T12:49:25.457Z,3.10
2018-05-02T12:51:53.002Z,3.00
2018-05-02T12:54:21.087Z,2.75
2018-05-02T12:56:48.645Z,3.33
2018-05-02T12:59:17.136Z,2.60
2018-05-02T13:01:44.661Z,2.58
2018-05-02T13:04:13.018Z,3.25
2018-05-02T13:06:40.554Z,3.83
2018-05-02T13:09:08.086Z,3.20
2018-05-02T13:11:35.642Z,2.92
2018-05-02T13:14:03.950Z,3.12
2018-05-02T13:16:31.477Z,3.33
2018-05-02T13:18:59.807Z,4.18
2018-05-02T13:21:27.343Z,3.72
2018-05-02T13:23:54.878Z,3.37
2018-05-02T13:26:22.410Z,4.47
2018-05-02T13:28:50.720Z,4.37
2018-05-02T13:31:19.057Z,4.20
2018-05-02T13:33:46.594Z,5.10
2018-05-02T13:36:14.127Z,4.20
2018-05-02T13:38:41.696Z,4.35
2018-05-02T13:41:09.226Z,3.92
2018-05-02T13:43:36.782Z,4.45
2018-05-02T13:46:04.353Z,4.10
2018-05-02T13:48:31.964Z,4.12
2018-05-02T13:51:00.295Z,4.30
2018-05-02T13:53:27.865Z,4.72
2018-05-02T13:55:55.443Z,5.15
2018-05-02T13:58:23.051Z,4.80
2018-05-02T14:00:50.668Z,5.15
2018-05-02T14:03:18.946Z,4.43
2018-05-02T14:05:47.245Z,5.05
2018-05-02T14:08:14.881Z,5.00
2018-05-02T14:10:42.391Z,5.25
2018-05-02T14:13:10.795Z,5.20
2018-05-02T14:15:38.340Z,5.25
2018-05-02T14:18:06.632Z,5.35
2018-05-02T14:20:34.917Z,5.03
2018-05-02T14:23:02.454Z,5.40
2018-05-02T14:25:29.998Z,5.50
2018-05-02T14:27:57.570Z,5.85
2018-05-02T14:30:25.134Z,5.75
2018-05-02T14:32:52.767Z,5.00
2018-05-02T14:35:21.055Z,6.07
2018-05-02T14:37:48.608Z,5.65
2018-05-02T14:40:16.157Z,5.43
2018-05-02T14:42:43.716Z,5.22
2018-05-02T14:45:11.597Z,5.80
2018-05-02T14:47:39.215Z,5.97
2018-05-02T14:50:06.750Z,5.40
2018-05-02T14:52:34.310Z,5.55
2018-05-02T14:55:01.888Z,6.60
2018-05-02T14:57:29.487Z,6.55
2018-05-02T14:59:57.823Z,6.55
2018-05-02T15:02:25.363Z,5.95
2018-05-02T15:04:52.889Z,5.75
2018-05-02T15:07:20.445Z,6.00
2018-05-02T15:09:47.977Z,5.62
2018-05-02T15:12:15.514Z,6.43
2018-05-02T15:14:43.051Z,6.90
2018-05-02T15:17:11.341Z,7.18
2018-05-02T15:19:39.672Z,6.20
2018-05-02T15:22:07.205Z,6.68
2018-05-02T15:24:34.772Z,6.25
2018-05-02T15:27:02.317Z,5.70
2018-05-02T15:29:30.634Z,6.05
2018-05-02T15:31:58.182Z,6.43
2018-05-02T15:34:25.714Z,6.60
2018-05-02T15:36:54.020Z,6.53
2018-05-02T15:39:21.568Z,6.62
2018-05-02T15:41:49.194Z,6.25
2018-05-02T15:44:16.744Z,7.55
2018-05-02T15:46:44.321Z,7.70
2018-05-02T15:49:11.870Z,5.97
2018-05-02T15:51:39.446Z,8.70
2018-05-02T15:54:06.984Z,8.82
2018-05-02T15:56:34.522Z,9.05
2018-05-02T15:59:02.125Z,8.52
2018-05-02T16:01:29.687Z,8.88
2018-05-02T16:03:57.238Z,7.55
2018-05-02T16:06:24.810Z,5.95
2018-05-02T16:08:52.350Z,6.80
2018-05-02T16:11:19.958Z,6.90
2018-05-02T16:13:47.498Z,7.53
2018-05-02T16:16:15.070Z,7.35
2018-05-02T16:18:42.662Z,7.70
2018-05-02T16:21:10.225Z,8.50
2018-05-02T16:23:37.764Z,7.45
2018-05-02T16:26:05.323Z,7.70
2018-05-02T16:28:32.881Z,8.45
2018-05-02T16:31:00.419Z,8.20
2018-05-02T16:33:28.754Z,8.75
2018-05-02T16:35:56.318Z,8.18
2018-05-02T16:38:23.878Z,9.02
2018-05-02T16:40:51.412Z,8.93
2018-05-02T16:43:18.958Z,8.03
2018-05-02T16:48:15.138Z,7.65
2018-05-02T16:50:42.675Z,8.23
2018-05-02T16:53:10.998Z,9.63
2018-05-02T16:55:38.534Z,9.10
2018-05-02T16:58:06.091Z,8.38
2018-05-02T17:00:33.649Z,10.52
2018-05-02T17:03:01.187Z,9.20
2018-05-02T17:07:55.857Z,9.93
2018-05-02T17:10:23.395Z,9.15
2018-05-02T17:12:50.979Z,9.70
2018-05-02T17:15:18.512Z,9.35
2018-05-02T17:17:46.844Z,10.65
2018-05-02T17:20:14.397Z,9.90
2018-05-02T17:25:09.054Z,10.33
2018-05-02T17:27:36.613Z,10.52
2018-05-02T17:30:04.243Z,9.55
2018-05-02T17:32:32.522Z,9.95
2018-05-02T17:35:00.079Z,10.57
2018-05-02T17:37:27.636Z,10.45
2018-05-02T17:39:55.164Z,9.95
2018-05-02T17:42:22.790Z,11.12
2018-05-02T17:44:50.281Z,10.90
2018-05-02T17:47:17.858Z,10.45
2018-05-02T17:49:45.462Z,10.45
2018-05-02T17:52:12.995Z,11.30
2018-05-02T17:54:41.289Z,10.85
2018-05-02T17:57:09.641Z,10.90
2018-05-02T17:59:37.188Z,10.77
2018-05-02T18:02:04.762Z,10.70
2018-05-02T18:04:32.308Z,11.75
2018-05-02T18:06:59.860Z,12.40
2018-05-02T18:09:27.419Z,11.95
2018-05-02T18:11:55.307Z,11.05
2018-05-02T18:14:22.841Z,10.95
2018-05-02T18:16:50.365Z,11.32
2018-05-02T18:19:17.946Z,10.70
2018-05-02T18:21:46.234Z,10.27
2018-05-02T18:24:14.559Z,11.20
2018-05-02T18:26:42.123Z,12.07
2018-05-02T18:29:09.691Z,10.77
2018-05-02T18:31:38.027Z,11.70
2018-05-02T18:34:05.657Z,12.00
2018-05-02T18:36:33.280Z,11.95
2018-05-02T18:39:00.773Z,10.85
2018-05-02T18:41:28.324Z,13.95
2018-05-02T18:43:55.892Z,12.93
2018-05-02T18:46:23.434Z,13.05
2018-05-02T18:48:50.971Z,13.20
2018-05-02T18:51:19.295Z,11.90
2018-05-02T18:53:46.860Z,13.55
2018-05-02T18:56:14.408Z,12.95
2018-05-02T18:58:41.982Z,11.63
2018-05-02T19:01:09.519Z,10.00
2018-05-02T19:06:04.161Z,11.90
